Time,TemperatureF,DewpointF,PressureIn,WindDirection,WindDirectionDegrees,WindSpeedMPH,WindSpeedGustMPH,Humidity,HourlyPrecipIn,Conditions,Clouds,dailyrainin,SoftwareType,DateUTC
2013-08-25 00:00:00,55.5,53.8,29.94,NW,319,0.0,0.0,94,0.00,,,0.08,Wunderground v.1.15,2013-08-25 07:00:00,
2013-08-25 00:05:00,55.5,53.8,29.94,NW,319,0.0,0.0,94,0.00,,,0.00,Wunderground v.1.15,2013-08-25 07:05:00,
2013-08-25 00:15:00,55.3,53.3,29.93,NW,319,0.0,0.0,93,0.00,,,0.00,Wunderground v.1.15,2013-08-25 07:15:00,
2013-08-25 00:25:00,55.2,53.2,29.94,NW,319,0.0,0.0,93,0.00,,,0.00,Wunderground v.1.15,2013-08-25 07:25:00,
2013-08-25 00:35:00,55.0,52.7,29.94,NW,319,0.0,0.0,92,0.00,,,0.00,Wunderground v.1.15,2013-08-25 07:35:00,
2013-08-25 00:40:00,54.9,52.6,29.94,NW,319,0.0,0.0,92,0.00,,,0.00,Wunderground v.1.15,2013-08-25 07:40:00,
2013-08-25 00:50:00,54.7,52.4,29.94,NW,319,0.0,0.0,92,0.00,,,0.00,Wunderground v.1.15,2013-08-25 07:50:00,
2013-08-25 01:00:00,54.5,52.2,29.94,NW,319,0.0,0.0,92,0.00,,,0.00,Wunderground v.1.15,2013-08-25 08:00:00,
2013-08-25 01:05:00,54.4,52.1,29.94,NW,319,0.0,0.0,92,0.00,,,0.00,Wunderground v.1.15,2013-08-25 08:05:00,
2013-08-25 01:15:00,54.1,52.1,29.94,NW,319,0.0,0.0,93,0.00,,,0.00,Wunderground v.1.15,2013-08-25 08:15:00,
2013-08-25 01:20:00,54.1,52.1,29.94,NW,319,0.0,0.0,93,0.00,,,0.00,Wunderground v.1.15,2013-08-25 08:20:00,
2013-08-25 01:25:00,54.0,52.0,29.94,NW,319,0.0,0.0,93,0.00,,,0.00,Wunderground v.1.15,2013-08-25 08:25:00,
2013-08-25 01:35:00,53.7,51.7,29.94,NW,319,0.0,0.0,93,0.00,,,0.00,Wunderground v.1.15,2013-08-25 08:35:00,
2013-08-25 01:45:00,53.4,51.4,29.94,NW,319,0.0,0.0,93,0.00,,,0.00,Wunderground v.1.15,2013-08-25 08:45:00,
2013-08-25 01:50:00,53.2,51.2,29.94,NW,319,0.0,0.0,93,0.00,,,0.00,Wunderground v.1.15,2013-08-25 08:50:00,
2013-08-25 02:00:00,53.0,51.3,29.94,NW,319,0.0,0.0,94,0.00,,,0.00,Wunderground v.1.15,2013-08-25 09:00:00,
2013-08-25 02:05:00,52.9,51.2,29.94,NW,319,0.0,0.0,94,0.00,,,0.00,Wunderground v.1.15,2013-08-25 09:05:00,
2013-08-25 02:15:00,52.8,51.4,29.95,NW,319,0.0,0.0,95,0.00,,,0.00,Wunderground v.1.15,2013-08-25 09:15:00,
2013-08-25 02:25:00,52.7,51.3,29.95,NW,319,0.0,0.0,95,0.00,,,0.00,Wunderground v.1.15,2013-08-25 09:25:00,
2013-08-25 02:30:00,52.7,51.3,29.95,NW,319,0.0,0.0,95,0.00,,,0.00,Wunderground v.1.15,2013-08-25 09:30:00,
2013-08-25 02:40:00,52.7,51.6,29.95,NW,319,0.0,0.0,96,0.00,,,0.00,Wunderground v.1.15,2013-08-25 09:40:00,
2013-08-25 02:45:00,52.8,51.7,29.94,NW,319,0.0,0.0,96,0.00,,,0.00,Wunderground v.1.15,2013-08-25 09:45:00,
2013-08-25 02:55:00,52.8,51.7,29.94,NW,319,1.0,1.0,96,0.00,,,0.00,Wunderground v.1.15,2013-08-25 09:55:00,
2013-08-25 03:00:00,52.8,51.7,29.94,NW,319,1.0,1.0,96,0.00,,,0.00,Wunderground v.1.15,2013-08-25 10:00:00,
2013-08-25 03:10:00,52.7,51.6,29.94,NW,319,0.0,0.0,96,0.00,,,0.00,Wunderground v.1.15,2013-08-25 10:10:00,
2013-08-25 03:15:00,52.6,51.5,29.94,NW,319,0.0,0.0,96,0.00,,,0.00,Wunderground v.1.15,2013-08-25 10:15:00,
2013-08-25 03:25:00,52.5,51.4,29.94,NW,319,0.0,0.0,96,0.00,,,0.00,Wunderground v.1.15,2013-08-25 10:25:00,
2013-08-25 03:35:00,52.4,51.3,29.95,NW,319,0.0,0.0,96,0.00,,,0.00,Wunderground v.1.15,2013-08-25 10:35:00,
2013-08-25 03:45:00,52.2,51.1,29.95,NW,319,0.0,0.0,96,0.00,,,0.00,Wunderground v.1.15,2013-08-25 10:45:00,
2013-08-25 03:55:00,51.9,50.8,29.95,NW,319,0.0,0.0,96,0.00,,,0.00,Wunderground v.1.15,2013-08-25 10:55:00,
2013-08-25 04:05:00,51.5,50.4,29.95,NW,319,0.0,0.0,96,0.00,,,0.00,Wunderground v.1.15,2013-08-25 11:05:00,
2013-08-25 04:10:00,51.3,50.2,29.95,NW,319,0.0,0.0,96,0.00,,,0.00,Wunderground v.1.15,2013-08-25 11:10:00,
2013-08-25 04:15:00,51.2,50.1,29.95,NW,319,0.0,0.0,96,0.00,,,0.00,Wunderground v.1.15,2013-08-25 11:15:00,
2013-08-25 04:25:00,51.1,50.0,29.95,NW,319,0.0,0.0,96,0.00,,,0.00,Wunderground v.1.15,2013-08-25 11:25:00,
2013-08-25 04:35:00,51.0,50.2,29.95,NW,319,0.0,0.0,97,0.00,,,0.00,Wunderground v.1.15,2013-08-25 11:35:00,
2013-08-25 04:40:00,50.9,49.8,29.95,NW,319,0.0,0.0,96,0.00,,,0.00,Wunderground v.1.15,2013-08-25 11:40:00,
2013-08-25 04:45:00,50.7,49.6,29.95,NW,319,0.0,0.0,96,0.00,,,0.00,Wunderground v.1.15,2013-08-25 11:45:00,
2013-08-25 04:55:00,50.5,49.7,29.95,NW,319,0.0,0.0,97,0.00,,,0.00,Wunderground v.1.15,2013-08-25 11:55:00,
2013-08-25 05:00:00,50.5,49.7,29.95,NW,319,0.0,0.0,97,0.00,,,0.00,Wunderground v.1.15,2013-08-25 12:00:00,
2013-08-25 05:05:00,50.5,49.7,29.95,NW,319,0.0,0.0,97,0.00,,,0.00,Wunderground v.1.15,2013-08-25 12:05:00,
2013-08-25 05:15:00,50.4,49.6,29.95,NW,319,0.0,0.0,97,0.00,,,0.00,Wunderground v.1.15,2013-08-25 12:15:00,
2013-08-25 05:20:00,50.4,49.6,29.95,NW,319,0.0,0.0,97,0.00,,,0.00,Wunderground v.1.15,2013-08-25 12:20:00,
2013-08-25 05:25:00,50.3,49.5,29.95,NW,319,0.0,0.0,97,0.00,,,0.00,Wunderground v.1.15,2013-08-25 12:25:00,
2013-08-25 05:35:00,50.1,49.3,29.95,NW,319,0.0,0.0,97,0.00,,,0.00,Wunderground v.1.15,2013-08-25 12:35:00,
2013-08-25 05:45:00,49.8,49.0,29.95,NW,319,0.0,0.0,97,0.00,,,0.00,Wunderground v.1.15,2013-08-25 12:45:00,
2013-08-25 05:50:00,49.9,49.1,29.95,NW,319,0.0,0.0,97,0.00,,,0.00,Wunderground v.1.15,2013-08-25 12:50:00,
2013-08-25 06:00:00,49.9,49.1,29.95,NW,319,0.0,0.0,97,0.00,,,0.00,Wunderground v.1.15,2013-08-25 13:00:00,
2013-08-25 06:10:00,49.9,49.1,29.95,NW,319,0.0,0.0,97,0.00,,,0.00,Wunderground v.1.15,2013-08-25 13:10:00,
2013-08-25 06:15:00,49.8,49.3,29.96,NW,319,0.0,0.0,98,0.00,,,0.00,Wunderground v.1.15,2013-08-25 13:15:00,
2013-08-25 06:25:00,49.8,49.3,29.96,NW,319,0.0,0.0,98,0.00,,,0.00,Wunderground v.1.15,2013-08-25 13:25:00,
2013-08-25 06:30:00,49.8,49.3,29.96,NW,319,0.0,0.0,98,0.00,,,0.00,Wunderground v.1.15,2013-08-25 13:30:00,
2013-08-25 06:40:00,49.9,49.4,29.96,NW,319,0.0,0.0,98,0.00,,,0.00,Wunderground v.1.15,2013-08-25 13:40:00,
2013-08-25 06:45:00,50.0,49.5,29.96,NW,319,0.0,0.0,98,0.00,,,0.00,Wunderground v.1.15,2013-08-25 13:45:00,
2013-08-25 06:55:00,49.8,49.3,29.96,NW,319,0.0,0.0,98,0.00,,,0.00,Wunderground v.1.15,2013-08-25 13:55:00,
2013-08-25 07:05:00,49.9,49.4,29.96,NW,319,0.0,0.0,98,0.00,,,0.00,Wunderground v.1.15,2013-08-25 14:05:00,
2013-08-25 07:10:00,50.0,49.5,29.96,NW,319,0.0,0.0,98,0.00,,,0.00,Wunderground v.1.15,2013-08-25 14:10:00,
2013-08-25 07:20:00,50.3,49.8,29.96,NW,319,0.0,0.0,98,0.00,,,0.00,Wunderground v.1.15,2013-08-25 14:20:00,
2013-08-25 07:25:00,50.4,49.9,29.96,NW,319,0.0,0.0,98,0.00,,,0.00,Wunderground v.1.15,2013-08-25 14:25:00,
2013-08-25 07:35:00,50.8,50.3,29.97,NW,319,0.0,0.0,98,0.00,,,0.00,Wunderground v.1.15,2013-08-25 14:35:00,
2013-08-25 07:40:00,50.9,50.4,29.97,NW,319,0.0,0.0,98,0.00,,,0.00,Wunderground v.1.15,2013-08-25 14:40:00,
2013-08-25 07:50:00,51.3,50.8,29.97,NW,319,0.0,0.0,98,0.00,,,0.00,Wunderground v.1.15,2013-08-25 14:50:00,
2013-08-25 07:55:00,51.6,51.1,29.97,NW,319,0.0,0.0,98,0.00,,,0.00,Wunderground v.1.15,2013-08-25 14:55:00,
2013-08-25 08:05:00,52.7,52.4,29.97,NW,319,0.0,0.0,99,0.00,,,0.00,Wunderground v.1.15,2013-08-25 15:05:00,
2013-08-25 08:15:00,53.6,53.0,29.96,NW,319,0.0,0.0,98,0.00,,,0.00,Wunderground v.1.15,2013-08-25 15:15:00,
2013-08-25 08:20:00,54.0,53.4,29.96,NW,319,0.0,0.0,98,0.00,,,0.00,Wunderground v.1.15,2013-08-25 15:20:00,
2013-08-25 08:30:00,54.9,54.3,29.96,NW,319,0.0,0.0,98,0.00,,,0.00,Wunderground v.1.15,2013-08-25 15:30:00,
2013-08-25 08:35:00,55.3,54.5,29.96,NW,319,0.0,0.0,97,0.00,,,0.00,Wunderground v.1.15,2013-08-25 15:35:00,
2013-08-25 08:40:00,55.7,54.6,29.96,ENE,57,0.0,0.0,96,0.00,,,0.00,Wunderground v.1.15,2013-08-25 15:40:00,
2013-08-25 08:50:00,56.4,54.7,29.96,ENE,57,0.0,0.0,94,0.00,,,0.00,Wunderground v.1.15,2013-08-25 15:50:00,
2013-08-25 09:00:00,57.1,54.8,29.96,ENE,57,0.0,0.0,92,0.00,,,0.00,Wunderground v.1.15,2013-08-25 16:00:00,
2013-08-25 09:05:00,57.4,55.1,29.96,ENE,59,0.0,2.0,92,0.00,,,0.00,Wunderground v.1.15,2013-08-25 16:05:00,
2013-08-25 09:15:00,58.2,55.0,29.96,ENE,71,0.0,2.0,89,0.00,,,0.00,Wunderground v.1.15,2013-08-25 16:15:00,
2013-08-25 09:25:00,58.9,55.7,29.95,ESE,104,1.0,2.0,89,0.00,,,0.00,Wunderground v.1.15,2013-08-25 16:25:00,
2013-08-25 09:35:00,59.8,56.2,29.95,East,95,0.0,1.0,88,0.00,,,0.00,Wunderground v.1.15,2013-08-25 16:35:00,
2013-08-25 09:40:00,60.1,55.9,29.95,East,95,0.0,0.0,86,0.00,,,0.00,Wunderground v.1.15,2013-08-25 16:40:00,
2013-08-25 09:50:00,60.4,55.5,29.95,SE,146,1.0,1.0,84,0.00,,,0.00,Wunderground v.1.15,2013-08-25 16:50:00,
2013-08-25 09:55:00,60.8,56.3,29.95,ESE,118,1.0,1.0,85,0.00,,,0.00,Wunderground v.1.15,2013-08-25 16:55:00,
2013-08-25 10:00:00,61.3,56.4,29.95,ENE,73,1.0,1.0,84,0.00,,,0.00,Wunderground v.1.15,2013-08-25 17:00:00,
2013-08-25 10:10:00,62.2,56.6,29.95,SSE,157,1.0,1.0,82,0.00,,,0.00,Wunderground v.1.15,2013-08-25 17:10:00,
2013-08-25 10:20:00,63.8,57.2,29.95,SE,136,1.0,1.0,79,0.00,,,0.00,Wunderground v.1.15,2013-08-25 17:20:00,
2013-08-25 10:30:00,64.7,57.3,29.94,South,171,1.0,4.0,77,0.00,,,0.00,Wunderground v.1.15,2013-08-25 17:30:00,
2013-08-25 10:40:00,64.6,56.9,29.94,West,279,2.0,2.0,76,0.00,,,0.00,Wunderground v.1.15,2013-08-25 17:40:00,
2013-08-25 10:50:00,66.1,57.9,29.94,SSW,205,1.0,2.0,75,0.00,,,0.00,Wunderground v.1.15,2013-08-25 17:50:00,
2013-08-25 11:00:00,66.7,57.8,29.94,South,176,2.0,2.0,73,0.00,,,0.00,Wunderground v.1.15,2013-08-25 18:00:00,
2013-08-25 11:05:00,67.2,58.6,29.94,SW,221,1.0,2.0,74,0.00,,,0.00,Wunderground v.1.15,2013-08-25 18:05:00,
2013-08-25 11:10:00,67.7,58.7,29.94,SW,215,2.0,2.0,73,0.00,,,0.00,Wunderground v.1.15,2013-08-25 18:10:00,
2013-08-25 11:15:00,69.0,60.4,29.94,SSW,197,3.0,5.0,74,0.00,,,0.00,Wunderground v.1.15,2013-08-25 18:15:00,
2013-08-25 11:25:00,67.4,58.4,29.94,South,176,3.0,3.0,73,0.00,,,0.00,Wunderground v.1.15,2013-08-25 18:25:00,
2013-08-25 11:35:00,68.5,58.3,29.94,NW,321,2.0,2.0,70,0.00,,,0.00,Wunderground v.1.15,2013-08-25 18:35:00,
2013-08-25 11:40:00,68.7,59.3,29.93,South,169,2.0,5.0,72,0.00,,,0.00,Wunderground v.1.15,2013-08-25 18:40:00,
2013-08-25 11:45:00,68.2,58.4,29.93,SSW,208,2.0,5.0,71,0.00,,,0.00,Wunderground v.1.15,2013-08-25 18:45:00,
2013-08-25 11:55:00,69.9,59.7,29.93,North,351,2.0,3.0,70,0.00,,,0.00,Wunderground v.1.15,2013-08-25 18:55:00,
2013-08-25 12:05:00,70.4,61.3,29.92,WNW,302,2.0,2.0,73,0.00,,,0.00,Wunderground v.1.15,2013-08-25 19:05:00,
2013-08-25 12:10:00,70.5,59.4,29.92,WNW,290,2.0,2.0,68,0.00,,,0.00,Wunderground v.1.15,2013-08-25 19:10:00,
2013-08-25 12:20:00,69.9,60.1,29.92,South,181,1.0,1.0,71,0.00,,,0.00,Wunderground v.1.15,2013-08-25 19:20:00,
2013-08-25 12:25:00,68.9,58.7,29.92,WNW,296,1.0,1.0,70,0.00,,,0.00,Wunderground v.1.15,2013-08-25 19:25:00,
2013-08-25 12:35:00,69.8,60.4,29.92,SE,139,1.0,5.0,72,0.00,,,0.00,Wunderground v.1.15,2013-08-25 19:35:00,
2013-08-25 12:45:00,69.3,58.7,29.91,WNW,293,1.0,4.0,69,0.00,,,0.00,Wunderground v.1.15,2013-08-25 19:45:00,
2013-08-25 12:50:00,69.3,58.7,29.92,NNW,344,2.0,2.0,69,0.00,,,0.00,Wunderground v.1.15,2013-08-25 19:50:00,
2013-08-25 13:00:00,69.2,59.0,29.91,ESE,102,1.0,1.0,70,0.00,,,0.00,Wunderground v.1.15,2013-08-25 20:00:00,
2013-08-25 13:05:00,69.0,58.0,29.91,West,280,2.0,2.0,68,0.00,,,0.00,Wunderground v.1.15,2013-08-25 20:05:00,
2013-08-25 13:15:00,68.4,58.6,29.91,NE,52,1.0,2.0,71,0.00,,,0.00,Wunderground v.1.15,2013-08-25 20:15:00,
2013-08-25 13:25:00,68.6,60.0,29.92,NNW,328,1.0,2.0,74,0.00,,,0.00,Wunderground v.1.15,2013-08-25 20:25:00,
2013-08-25 13:30:00,69.0,59.6,29.91,SW,215,1.0,1.0,72,0.00,,,0.00,Wunderground v.1.15,2013-08-25 20:30:00,
2013-08-25 13:35:00,69.9,59.7,29.91,East,88,1.0,1.0,70,0.00,,,0.00,Wunderground v.1.15,2013-08-25 20:35:00,
2013-08-25 13:45:00,70.7,58.8,29.91,WSW,252,1.0,1.0,66,0.00,,,0.00,Wunderground v.1.15,2013-08-25 20:45:00,
2013-08-25 13:50:00,71.3,60.2,29.91,SE,138,1.0,2.0,68,0.00,,,0.00,Wunderground v.1.15,2013-08-25 20:50:00,
2013-08-25 13:55:00,71.3,59.4,29.90,NNE,30,2.0,2.0,66,0.00,,,0.00,Wunderground v.1.15,2013-08-25 20:55:00,
2013-08-25 14:05:00,70.3,59.6,29.90,WNW,282,1.0,3.0,69,0.00,,,0.00,Wunderground v.1.15,2013-08-25 21:05:00,
2013-08-25 14:10:00,70.6,61.1,29.90,NE,56,1.0,1.0,72,0.00,,,0.00,Wunderground v.1.15,2013-08-25 21:10:00,
2013-08-25 14:20:00,69.9,59.3,29.90,East,98,1.0,1.0,69,0.00,,,0.00,Wunderground v.1.15,2013-08-25 21:20:00,
2013-08-25 14:25:00,69.8,60.0,29.90,NE,42,1.0,2.0,71,0.00,,,0.00,Wunderground v.1.15,2013-08-25 21:25:00,
2013-08-25 14:35:00,70.3,58.4,29.90,SE,146,1.0,1.0,66,0.00,,,0.00,Wunderground v.1.15,2013-08-25 21:35:00,
2013-08-25 14:40:00,70.1,58.2,29.90,SW,215,1.0,1.0,66,0.00,,,0.00,Wunderground v.1.15,2013-08-25 21:40:00,
2013-08-25 14:50:00,69.7,59.9,29.90,NW,320,0.0,0.0,71,0.00,,,0.00,Wunderground v.1.15,2013-08-25 21:50:00,
2013-08-25 14:55:00,69.5,57.2,29.89,SW,219,0.0,0.0,65,0.00,,,0.00,Wunderground v.1.15,2013-08-25 21:55:00,
2013-08-25 15:05:00,69.2,59.0,29.89,ESE,105,0.0,1.0,70,0.00,,,0.00,Wunderground v.1.15,2013-08-25 22:05:00,
2013-08-25 15:15:00,69.0,58.8,29.89,SSE,156,0.0,2.0,70,0.00,,,0.00,Wunderground v.1.15,2013-08-25 22:15:00,
2013-08-25 15:20:00,68.7,60.5,29.89,SSE,158,0.0,0.0,75,0.00,,,0.00,Wunderground v.1.15,2013-08-25 22:20:00,
2013-08-25 15:30:00,68.5,58.7,29.89,NNW,336,0.0,0.0,71,0.00,,,0.00,Wunderground v.1.15,2013-08-25 22:30:00,
2013-08-25 15:35:00,68.3,58.9,29.89,NNW,336,0.0,0.0,72,0.00,,,0.00,Wunderground v.1.15,2013-08-25 22:35:00,
2013-08-25 15:45:00,68.1,60.2,29.89,NNW,336,0.0,1.0,76,0.00,,,0.00,Wunderground v.1.15,2013-08-25 22:45:00,
2013-08-25 15:50:00,68.1,60.2,29.89,NNW,336,0.0,0.0,76,0.00,,,0.00,Wunderground v.1.15,2013-08-25 22:50:00,
2013-08-25 16:00:00,68.0,59.0,29.89,NNW,336,0.0,0.0,73,0.00,,,0.00,Wunderground v.1.15,2013-08-25 23:00:00,
2013-08-25 16:05:00,67.8,59.2,29.89,NNW,336,0.0,0.0,74,0.00,,,0.00,Wunderground v.1.15,2013-08-25 23:05:00,
2013-08-25 16:15:00,67.6,59.4,29.89,ENE,68,0.0,1.0,75,0.00,,,0.00,Wunderground v.1.15,2013-08-25 23:15:00,
2013-08-25 16:25:00,67.3,60.2,29.89,SSE,167,0.0,0.0,78,0.00,,,0.00,Wunderground v.1.15,2013-08-25 23:25:00,
2013-08-25 16:30:00,67.1,60.4,29.89,SSE,167,0.0,0.0,79,0.00,,,0.00,Wunderground v.1.15,2013-08-25 23:30:00,
2013-08-25 16:40:00,66.9,59.1,29.89,SSE,167,0.0,0.0,76,0.00,,,0.00,Wunderground v.1.15,2013-08-25 23:40:00,
2013-08-25 16:45:00,66.9,59.8,29.89,SSE,167,0.0,0.0,78,0.00,,,0.00,Wunderground v.1.15,2013-08-25 23:45:00,
2013-08-25 16:55:00,66.7,60.3,29.89,SSE,167,0.0,0.0,80,0.00,,,0.00,Wunderground v.1.15,2013-08-25 23:55:00,
2013-08-25 17:05:00,66.4,59.3,29.90,SSE,159,0.0,0.0,78,0.00,,,0.00,Wunderground v.1.15,2013-08-26 00:05:00,
2013-08-25 17:10:00,66.4,59.3,29.90,SSE,159,0.0,0.0,78,0.00,,,0.00,Wunderground v.1.15,2013-08-26 00:10:00,
2013-08-25 17:20:00,66.3,59.6,29.90,SSE,159,0.0,0.0,79,0.00,,,0.00,Wunderground v.1.15,2013-08-26 00:20:00,
2013-08-25 17:25:00,66.2,59.1,29.90,SSE,159,0.0,0.0,78,0.00,,,0.00,Wunderground v.1.15,2013-08-26 00:25:00,
2013-08-25 17:35:00,65.9,59.9,29.90,SSE,159,0.0,0.0,81,0.00,,,0.00,Wunderground v.1.15,2013-08-26 00:35:00,
2013-08-25 17:40:00,65.7,59.7,29.90,SSE,159,0.0,0.0,81,0.00,,,0.00,Wunderground v.1.15,2013-08-26 00:40:00,
2013-08-25 17:45:00,65.6,59.6,29.90,SSE,159,0.0,0.0,81,0.00,,,0.00,Wunderground v.1.15,2013-08-26 00:45:00,
2013-08-25 17:55:00,65.3,60.3,29.89,SSE,159,0.0,0.0,84,0.00,,,0.00,Wunderground v.1.15,2013-08-26 00:55:00,
2013-08-25 18:05:00,65.0,60.7,29.89,SSE,159,0.0,0.0,86,0.00,,,0.00,Wunderground v.1.15,2013-08-26 01:05:00,
2013-08-25 18:15:00,64.4,60.1,29.90,SSE,159,0.0,0.0,86,0.00,,,0.00,Wunderground v.1.15,2013-08-26 01:15:00,
2013-08-25 18:25:00,63.9,59.6,29.89,SSE,159,0.0,0.0,86,0.00,,,0.00,Wunderground v.1.15,2013-08-26 01:25:00,
2013-08-25 18:30:00,63.7,59.8,29.89,SSE,159,0.0,0.0,87,0.00,,,0.00,Wunderground v.1.15,2013-08-26 01:30:00,
2013-08-25 18:40:00,63.5,59.9,29.88,SSE,159,0.0,0.0,88,0.00,,,0.00,Wunderground v.1.15,2013-08-26 01:40:00,
2013-08-25 18:50:00,63.4,60.1,29.88,SSE,159,0.0,0.0,89,0.00,,,0.00,Wunderground v.1.15,2013-08-26 01:50:00,
2013-08-25 19:00:00,63.2,60.2,29.89,SSE,159,0.0,0.0,90,0.00,,,0.00,Wunderground v.1.15,2013-08-26 02:00:00,
2013-08-25 19:10:00,62.9,60.2,29.88,SSE,159,0.0,0.0,91,0.00,,,0.00,Wunderground v.1.15,2013-08-26 02:10:00,
2013-08-25 19:15:00,62.7,59.7,29.88,SSE,159,0.0,0.0,90,0.00,,,0.00,Wunderground v.1.15,2013-08-26 02:15:00,
2013-08-25 19:20:00,62.7,59.7,29.89,SSE,159,0.0,0.0,90,0.00,,,0.00,Wunderground v.1.15,2013-08-26 02:20:00,
2013-08-25 19:30:00,62.5,59.2,29.89,SSE,159,0.0,0.0,89,0.00,,,0.00,Wunderground v.1.15,2013-08-26 02:30:00,
2013-08-25 19:40:00,62.3,59.3,29.89,SSE,159,0.0,0.0,90,0.00,,,0.00,Wunderground v.1.15,2013-08-26 02:40:00,
2013-08-25 19:50:00,62.2,59.5,29.89,SSE,159,0.0,0.0,91,0.00,,,0.00,Wunderground v.1.15,2013-08-26 02:50:00,
2013-08-25 20:00:00,62.1,59.4,29.90,SSE,159,0.0,0.0,91,0.00,,,0.00,Wunderground v.1.15,2013-08-26 03:00:00,
2013-08-25 20:10:00,62.0,59.6,29.90,SSE,159,0.0,0.0,92,0.00,,,0.00,Wunderground v.1.15,2013-08-26 03:10:00,
2013-08-25 20:20:00,61.7,59.4,29.89,SSE,159,0.0,0.0,92,0.00,,,0.00,Wunderground v.1.15,2013-08-26 03:20:00,
2013-08-25 20:30:00,61.5,59.2,29.89,SSE,159,0.0,0.0,92,0.00,,,0.00,Wunderground v.1.15,2013-08-26 03:30:00,
2013-08-25 20:35:00,61.4,59.1,29.89,SSE,159,0.0,0.0,92,0.00,,,0.00,Wunderground v.1.15,2013-08-26 03:35:00,
2013-08-25 20:45:00,61.1,59.1,29.90,SSE,159,0.0,0.0,93,0.00,,,0.00,Wunderground v.1.15,2013-08-26 03:45:00,
2013-08-25 20:50:00,61.0,59.0,29.90,SSE,159,0.0,0.0,93,0.00,,,0.00,Wunderground v.1.15,2013-08-26 03:50:00,
2013-08-25 21:00:00,60.8,58.8,29.90,SSE,159,0.0,0.0,93,0.00,,,0.00,Wunderground v.1.15,2013-08-26 04:00:00,
2013-08-25 21:05:00,60.8,59.1,29.90,SSE,159,0.0,0.0,94,0.00,,,0.00,Wunderground v.1.15,2013-08-26 04:05:00,
2013-08-25 21:10:00,60.7,58.7,29.90,SSE,159,0.0,0.0,93,0.00,,,0.00,Wunderground v.1.15,2013-08-26 04:10:00,
2013-08-25 21:15:00,60.6,58.6,29.90,SSE,159,0.0,0.0,93,0.00,,,0.00,Wunderground v.1.15,2013-08-26 04:15:00,
2013-08-25 21:20:00,60.5,58.5,29.90,SSE,159,0.0,0.0,93,0.00,,,0.00,Wunderground v.1.15,2013-08-26 04:20:00,
2013-08-25 21:25:00,60.5,58.5,29.90,SSE,159,0.0,0.0,93,0.00,,,0.00,Wunderground v.1.15,2013-08-26 04:25:00,
2013-08-25 21:35:00,60.4,58.7,29.89,SSE,159,0.0,0.0,94,0.00,,,0.00,Wunderground v.1.15,2013-08-26 04:35:00,
2013-08-25 21:40:00,60.4,58.7,29.90,SSE,159,0.0,0.0,94,0.00,,,0.00,Wunderground v.1.15,2013-08-26 04:40:00,
2013-08-25 21:45:00,60.4,58.7,29.90,SSE,159,0.0,0.0,94,0.00,,,0.00,Wunderground v.1.15,2013-08-26 04:45:00,
2013-08-25 21:55:00,60.3,58.6,29.90,SSE,159,0.0,0.0,94,0.00,,,0.00,Wunderground v.1.15,2013-08-26 04:55:00,
2013-08-25 22:05:00,60.3,58.6,29.90,SSE,159,0.0,0.0,94,0.00,,,0.00,Wunderground v.1.15,2013-08-26 05:05:00,
2013-08-25 22:10:00,60.3,58.6,29.90,SSE,159,0.0,0.0,94,0.00,,,0.00,Wunderground v.1.15,2013-08-26 05:10:00,
2013-08-25 22:20:00,60.2,58.5,29.91,SSE,159,0.0,0.0,94,0.00,,,0.00,Wunderground v.1.15,2013-08-26 05:20:00,
2013-08-25 22:30:00,60.1,58.4,29.91,SSE,159,0.0,0.0,94,0.00,,,0.00,Wunderground v.1.15,2013-08-26 05:30:00,
2013-08-25 22:40:00,60.0,58.3,29.90,SSE,159,0.0,0.0,94,0.00,,,0.00,Wunderground v.1.15,2013-08-26 05:40:00,
2013-08-25 22:50:00,59.9,58.2,29.90,SSE,159,0.0,0.0,94,0.00,,,0.00,Wunderground v.1.15,2013-08-26 05:50:00,
2013-08-25 23:00:00,59.8,58.1,29.90,SSE,159,0.0,0.0,94,0.00,,,0.00,Wunderground v.1.15,2013-08-26 06:00:00,
2013-08-25 23:10:00,59.7,58.3,29.90,SSE,159,0.0,0.0,95,0.00,,,0.00,Wunderground v.1.15,2013-08-26 06:10:00,
2013-08-25 23:15:00,59.6,58.2,29.90,SSE,159,0.0,0.0,95,0.00,,,0.00,Wunderground v.1.15,2013-08-26 06:15:00,
2013-08-25 23:25:00,59.5,58.1,29.90,SSE,159,0.0,0.0,95,0.00,,,0.00,Wunderground v.1.15,2013-08-26 06:25:00,
2013-08-25 23:35:00,59.3,57.9,29.89,SSE,159,0.0,0.0,95,0.00,,,0.00,Wunderground v.1.15,2013-08-26 06:35:00,
2013-08-25 23:40:00,59.2,57.8,29.89,SSE,159,0.0,0.0,95,0.00,,,0.00,Wunderground v.1.15,2013-08-26 06:40:00,
2013-08-25 23:45:00,59.1,58.0,29.89,SSE,159,0.0,0.0,96,0.00,,,0.00,Wunderground v.1.15,2013-08-26 06:45:00,
2013-08-25 23:55:00,59.1,58.0,29.89,SSE,159,0.0,0.0,96,0.00,,,0.00,Wunderground v.1.15,2013-08-26 06:55:00,